createdAt,value
2022-10-28T00:01:25.326Z,165.70
2022-10-28T00:04:00.432Z,222.70
2022-10-28T00:06:34.971Z,203.20
2022-10-28T00:09:05.746Z,199.10
2022-10-28T00:11:36.137Z,143.90
2022-10-28T00:14:06.642Z,130.00
2022-10-28T00:16:37.163Z,262.40
2022-10-28T00:19:08.059Z,159.10
2022-10-28T00:21:38.826Z,281.50
2022-10-28T00:24:09.221Z,137.70
2022-10-28T00:26:42.106Z,122.20
2022-10-28T00:31:47.075Z,163.90
2022-10-28T00:34:18.940Z,136.90
2022-10-28T00:36:48.250Z,146.70
2022-10-28T00:39:20.771Z,131.80
2022-10-28T00:41:58.641Z,199.60
2022-10-28T00:44:56.709Z,136.10
2022-10-28T00:47:55.767Z,239.60
2022-10-28T00:50:47.934Z,296.80
2022-10-28T00:53:26.434Z,303.30
2022-10-28T00:55:57.023Z,116.50
2022-10-28T00:58:26.421Z,284.20
2022-10-28T01:00:54.654Z,147.40
2022-10-28T01:03:23.114Z,132.10
2022-10-28T01:05:52.050Z,206.90
2022-10-28T01:08:20.182Z,182.40
2022-10-28T01:11:06.433Z,191.90
2022-10-28T01:14:24.401Z,301.10
2022-10-28T01:17:10.270Z,215.80
2022-10-28T01:19:49.343Z,186.20
2022-10-28T01:22:52.124Z,199.10
2022-10-28T01:26:03.864Z,170.00
2022-10-28T01:29:07.600Z,156.70
2022-10-28T01:32:11.693Z,194.40
2022-10-28T01:35:33.500Z,177.00
2022-10-28T01:38:28.018Z,155.20
2022-10-28T01:41:35.941Z,147.30
2022-10-28T01:44:44.981Z,140.60
2022-10-28T01:47:25.458Z,152.40
2022-10-28T01:50:15.588Z,147.50
2022-10-28T01:52:44.655Z,155.00
2022-10-28T01:55:39.140Z,133.50
2022-10-28T01:58:11.802Z,98.80
2022-10-28T02:00:40.657Z,137.10
2022-10-28T02:03:10.011Z,142.60
2022-10-28T02:05:46.826Z,131.00
2022-10-28T02:08:46.177Z,142.40
2022-10-28T02:11:38.773Z,122.90
2022-10-28T02:14:52.974Z,134.00
2022-10-28T02:17:38.290Z,140.50
2022-10-28T02:20:26.582Z,148.80
2022-10-28T02:23:27.403Z,155.80
2022-10-28T02:26:12.426Z,130.10
2022-10-28T02:29:17.748Z,161.20
2022-10-28T02:31:54.955Z,134.00
2022-10-28T02:34:31.020Z,135.90
2022-10-28T02:37:03.839Z,136.40
2022-10-28T02:39:40.632Z,132.50
2022-10-28T02:42:26.174Z,127.00
2022-10-28T02:45:00.402Z,128.10
2022-10-28T02:47:33.869Z,129.30
2022-10-28T02:50:06.461Z,131.20
2022-10-28T02:52:35.434Z,124.60
2022-10-28T02:55:06.070Z,120.80
2022-10-28T02:57:44.763Z,127.70
2022-10-28T03:00:19.445Z,130.70
2022-10-28T03:02:47.142Z,141.40
2022-10-28T03:05:14.990Z,139.20
2022-10-28T03:07:43.075Z,137.70
2022-10-28T03:10:10.759Z,132.00
2022-10-28T03:12:38.509Z,144.80
2022-10-28T03:15:07.195Z,145.30
2022-10-28T03:17:34.820Z,143.80
2022-10-28T03:20:02.577Z,147.40
2022-10-28T03:22:30.283Z,148.40
2022-10-28T03:24:57.929Z,143.40
2022-10-28T03:27:25.673Z,149.50
2022-10-28T03:29:53.319Z,142.80
2022-10-28T03:34:53.630Z,142.90
2022-10-28T03:37:21.274Z,146.70
2022-10-28T03:39:48.930Z,142.60
2022-10-28T03:42:16.733Z,127.60
2022-10-28T03:44:44.493Z,141.20
2022-10-28T03:47:12.122Z,135.90
2022-10-28T03:49:39.808Z,126.90
2022-10-28T03:52:07.450Z,136.10
2022-10-28T03:54:35.094Z,123.60
2022-10-28T03:57:02.884Z,113.60
2022-10-28T03:59:30.671Z,125.80
2022-10-28T04:01:58.425Z,146.40
2022-10-28T04:04:29.913Z,140.50
2022-10-28T04:06:58.626Z,153.60
2022-10-28T04:09:26.250Z,136.10
2022-10-28T04:11:54.112Z,141.10
2022-10-28T04:14:21.825Z,141.00
2022-10-28T04:16:49.469Z,146.50
2022-10-28T04:19:17.130Z,134.90
2022-10-28T04:21:44.816Z,135.90
2022-10-28T04:24:12.516Z,137.80
2022-10-28T04:26:40.270Z,132.00
2022-10-28T04:29:07.973Z,128.30
2022-10-28T04:31:35.654Z,122.70
2022-10-28T04:34:03.600Z,128.30
2022-10-28T04:36:31.340Z,109.40
2022-10-28T04:38:59.015Z,110.20
2022-10-28T04:41:26.682Z,107.70
2022-10-28T04:43:56.300Z,115.10
2022-10-28T04:46:24.258Z,113.80
2022-10-28T04:48:52.041Z,117.60
2022-10-28T04:51:19.702Z,124.10
2022-10-28T04:53:47.511Z,120.00
2022-10-28T04:56:15.201Z,110.80
2022-10-28T04:58:42.895Z,112.70
2022-10-28T05:01:11.057Z,112.10
2022-10-28T05:03:38.812Z,110.40
2022-10-28T05:06:06.618Z,107.00
2022-10-28T05:08:34.263Z,106.50
2022-10-28T05:11:01.927Z,104.70
2022-10-28T05:13:29.600Z,92.00
2022-10-28T05:15:57.370Z,97.70
2022-10-28T05:18:25.023Z,94.30
2022-10-28T05:20:55.038Z,98.10
2022-10-28T05:23:25.902Z,105.00
2022-10-28T05:25:58.251Z,98.30
2022-10-28T05:28:26.085Z,109.80
2022-10-28T05:30:53.835Z,101.40
2022-10-28T05:33:21.868Z,95.40
2022-10-28T05:35:49.891Z,99.60
2022-10-28T05:38:18.045Z,97.80
2022-10-28T05:40:45.752Z,102.90
2022-10-28T05:43:13.497Z,96.00
2022-10-28T05:45:41.195Z,99.80
2022-10-28T05:48:08.926Z,99.90
2022-10-28T05:50:36.606Z,94.90
2022-10-28T05:53:04.281Z,99.70
2022-10-28T05:55:32.063Z,96.00
2022-10-28T05:57:59.909Z,87.50
2022-10-28T06:00:28.814Z,111.60
2022-10-28T06:03:10.380Z,98.90
2022-10-28T06:05:44.195Z,99.80
2022-10-28T06:08:13.868Z,93.20
2022-10-28T06:10:56.942Z,98.10
2022-10-28T06:13:24.663Z,100.90
2022-10-28T06:15:55.291Z,106.40
2022-10-28T06:18:23.384Z,103.40
2022-10-28T06:21:00.373Z,94.00
2022-10-28T06:23:28.091Z,99.40
2022-10-28T06:26:00.942Z,110.40
2022-10-28T06:31:05.624Z,96.80
2022-10-28T06:33:33.787Z,99.90
2022-10-28T06:36:02.348Z,93.40
2022-10-28T06:38:30.400Z,103.60
2022-10-28T06:40:58.200Z,99.80
2022-10-28T06:43:26.538Z,99.10
2022-10-28T06:45:55.788Z,88.40
2022-10-28T06:48:25.010Z,95.80
2022-10-28T06:50:56.169Z,95.00
2022-10-28T06:53:25.403Z,94.40
2022-10-28T06:55:57.335Z,101.20
2022-10-28T06:58:26.287Z,391.00
2022-10-28T07:00:56.538Z,99.20
2022-10-28T07:03:23.243Z,100.40
2022-10-28T07:05:51.489Z,87.80
2022-10-28T07:08:19.610Z,93.90
2022-10-28T07:10:58.892Z,102.70
2022-10-28T07:13:27.490Z,94.20
2022-10-28T07:16:00.654Z,96.90
2022-10-28T07:18:29.876Z,297.60
2022-10-28T07:21:01.486Z,84.10
2022-10-28T07:23:34.148Z,86.30
2022-10-28T07:26:02.094Z,80.90
2022-10-28T07:28:29.952Z,78.40
2022-10-28T07:31:02.600Z,70.60
2022-10-28T07:33:30.614Z,77.00
2022-10-28T07:35:58.329Z,74.10
2022-10-28T07:38:26.487Z,343.60
2022-10-28T07:40:54.373Z,82.70
2022-10-28T07:43:22.061Z,90.50
2022-10-28T07:45:57.201Z,72.10
2022-10-28T07:48:25.057Z,73.90
2022-10-28T07:50:52.780Z,59.40
2022-10-28T07:53:22.618Z,61.70
2022-10-28T07:55:58.036Z,65.20
2022-10-28T07:58:25.880Z,59.70
2022-10-28T08:00:53.927Z,80.10
2022-10-28T08:03:21.895Z,89.80
2022-10-28T08:05:49.568Z,80.80
2022-10-28T08:08:17.256Z,79.50
2022-10-28T08:10:44.865Z,82.20
2022-10-28T08:13:12.625Z,99.20
2022-10-28T08:15:40.288Z,121.80
2022-10-28T08:18:07.892Z,122.30
2022-10-28T08:20:35.599Z,81.90
2022-10-28T08:23:05.359Z,314.90
2022-10-28T08:25:35.231Z,212.90
2022-10-28T08:28:02.894Z,55.70
2022-10-28T08:30:36.545Z,60.20
2022-10-28T08:33:14.448Z,47.50
2022-10-28T08:35:42.896Z,71.00
2022-10-28T08:38:10.730Z,64.20
2022-10-28T08:41:22.072Z,63.60
2022-10-28T08:44:05.896Z,78.50
2022-10-28T08:47:25.816Z,35.50
2022-10-28T08:50:03.235Z,81.90
2022-10-28T08:52:45.966Z,93.40
2022-10-28T08:55:33.354Z,43.00
2022-10-28T08:58:16.579Z,25.60
2022-10-28T09:00:51.964Z,50.30
2022-10-28T09:03:38.999Z,28.10
2022-10-28T09:06:10.234Z,38.10
2022-10-28T09:08:51.059Z,24.00
2022-10-28T09:11:54.712Z,18.70
2022-10-28T09:14:37.390Z,28.20
2022-10-28T09:17:20.178Z,18.10
2022-10-28T09:19:56.982Z,30.50
2022-10-28T09:22:53.683Z,28.60
2022-10-28T09:25:50.087Z,24.80
2022-10-28T09:29:03.652Z,31.70
2022-10-28T09:31:47.468Z,24.80
2022-10-28T09:34:43.340Z,16.20
2022-10-28T09:37:28.141Z,23.90
2022-10-28T09:40:02.643Z,13.30
2022-10-28T09:42:37.577Z,19.20
2022-10-28T09:45:16.506Z,19.20
2022-10-28T09:47:53.625Z,75.00
2022-10-28T09:50:27.801Z,19.80
2022-10-28T09:53:16.268Z,18.40
2022-10-28T09:55:44.405Z,38.20
2022-10-28T09:58:13.830Z,98.70
2022-10-28T10:00:42.033Z,39.90
2022-10-28T10:03:10.011Z,48.90
2022-10-28T10:05:44.806Z,15.50
2022-10-28T10:08:18.817Z,40.10
2022-10-28T10:11:01.024Z,23.30
2022-10-28T10:13:34.816Z,18.30
2022-10-28T10:16:19.794Z,19.30
2022-10-28T10:18:54.473Z,19.20
2022-10-28T10:21:52.932Z,56.50
2022-10-28T10:24:36.071Z,33.90
2022-10-28T10:27:19.657Z,40.60
2022-10-28T10:29:51.234Z,21.60
2022-10-28T10:32:24.970Z,15.10
2022-10-28T10:35:25.900Z,16.30
2022-10-28T10:37:57.820Z,19.20
2022-10-28T10:40:33.456Z,18.70
2022-10-28T10:43:20.748Z,12.40
2022-10-28T10:45:58.843Z,60.90
2022-10-28T10:48:28.915Z,116.50
2022-10-28T10:50:56.991Z,15.80
2022-10-28T10:53:34.037Z,13.60
2022-10-28T10:56:10.774Z,20.00
2022-10-28T10:58:49.818Z,11.80
2022-10-28T11:01:24.043Z,99.80
2022-10-28T11:04:03.114Z,16.60
2022-10-28T11:06:36.626Z,16.90
2022-10-28T11:09:17.577Z,10.40
2022-10-28T11:11:45.688Z,61.20
2022-10-28T11:14:13.404Z,143.30
2022-10-28T11:16:54.375Z,21.00
2022-10-28T11:19:26.397Z,61.30
2022-10-28T11:22:01.174Z,61.40
2022-10-28T11:24:46.332Z,11.10
2022-10-28T11:27:57.611Z,39.10
2022-10-28T11:31:08.451Z,12.80
2022-10-28T11:34:05.454Z,16.60
2022-10-28T11:36:47.847Z,19.40
2022-10-28T11:39:34.051Z,15.90
2022-10-28T11:42:38.263Z,74.80
2022-10-28T11:45:21.374Z,15.10
2022-10-28T11:48:07.201Z,101.30
2022-10-28T11:50:57.421Z,9.80
2022-10-28T11:54:12.511Z,56.80
2022-10-28T11:56:47.914Z,490.00
2022-10-28T11:59:52.826Z,610.90
2022-10-28T12:02:49.398Z,488.80
2022-10-28T12:05:53.536Z,508.00
2022-10-28T12:08:58.337Z,476.80
2022-10-28T12:11:51.868Z,629.30
2022-10-28T12:14:37.407Z,564.00
2022-10-28T12:17:19.873Z,143.80
2022-10-28T12:19:59.517Z,57.20
2022-10-28T12:22:33.999Z,16.30
2022-10-28T12:25:08.961Z,13.40
2022-10-28T12:27:41.892Z,11.90
2022-10-28T12:30:21.723Z,14.80
2022-10-28T12:33:15.653Z,14.40
2022-10-28T12:36:32.087Z,15.10
2022-10-28T12:39:03.019Z,40.90
2022-10-28T12:41:55.157Z,21.40
2022-10-28T12:44:26.193Z,66.10
2022-10-28T12:47:14.117Z,95.60
2022-10-28T12:50:04.120Z,10.30
2022-10-28T12:53:01.949Z,9.50
2022-10-28T12:55:51.353Z,16.30
2022-10-28T12:58:36.263Z,12.20
2022-10-28T13:01:15.416Z,11.70
2022-10-28T13:03:43.355Z,10.70
2022-10-28T13:06:41.570Z,11.60
2022-10-28T13:09:38.002Z,13.50
2022-10-28T13:12:41.782Z,338.70
2022-10-28T13:15:32.685Z,344.50
2022-10-28T13:18:46.428Z,212.20
2022-10-28T13:22:13.157Z,124.80
2022-10-28T13:25:41.198Z,150.00
2022-10-28T13:28:16.282Z,28.80
2022-10-28T13:31:01.200Z,22.10
2022-10-28T13:33:33.062Z,23.80
2022-10-28T13:36:36.198Z,19.30
2022-10-28T13:39:23.989Z,39.30
2022-10-28T13:42:14.772Z,20.20
2022-10-28T13:44:57.456Z,21.00
2022-10-28T13:47:33.069Z,85.90
2022-10-28T13:50:07.381Z,106.20
2022-10-28T13:52:40.350Z,124.30
2022-10-28T13:55:14.196Z,55.20
2022-10-28T13:57:46.633Z,62.60
2022-10-28T14:00:17.562Z,82.10
2022-10-28T14:02:49.516Z,10.50
2022-10-28T14:05:40.802Z,62.10
2022-10-28T14:08:34.510Z,30.60
2022-10-28T14:11:08.729Z,89.50
2022-10-28T14:13:49.704Z,312.80
2022-10-28T14:16:40.253Z,193.80
2022-10-28T14:19:10.767Z,144.90
2022-10-28T14:21:51.325Z,34.80
2022-10-28T14:24:40.584Z,102.40
2022-10-28T14:27:08.343Z,27.90
2022-10-28T14:29:51.488Z,52.00
2022-10-28T14:32:31.723Z,35.70
2022-10-28T14:35:14.848Z,28.10
2022-10-28T14:43:40.465Z,17.50
2022-10-28T14:46:27.648Z,55.40
2022-10-28T14:48:57.913Z,27.40
2022-10-28T14:51:29.830Z,92.10
2022-10-28T14:54:00.562Z,37.00
2022-10-28T14:56:31.162Z,19.80
2022-10-28T14:59:26.299Z,16.30
2022-10-28T15:02:10.223Z,35.70
2022-10-28T15:04:41.645Z,12.60
2022-10-28T15:07:14.928Z,116.80
2022-10-28T15:09:48.839Z,98.40
2022-10-28T15:12:17.812Z,96.10
2022-10-28T15:14:53.195Z,51.30
2022-10-28T15:17:28.143Z,107.60
2022-10-28T15:20:00.400Z,57.60
2022-10-28T15:22:33.267Z,35.20
2022-10-28T15:27:38.108Z,44.50
2022-10-28T15:30:23.625Z,59.40
2022-10-28T15:32:54.007Z,38.40
2022-10-28T15:35:27.757Z,34.40
2022-10-28T15:37:59.807Z,16.50
2022-10-28T15:40:35.406Z,32.50
2022-10-28T15:43:06.002Z,36.20
2022-10-28T15:45:41.346Z,20.80
2022-10-28T15:48:14.423Z,50.70
2022-10-28T15:50:42.160Z,19.30
2022-10-28T15:53:09.739Z,30.80
2022-10-28T15:56:06.630Z,24.30
2022-10-28T15:58:42.224Z,31.90
2022-10-28T16:01:31.495Z,46.30
2022-10-28T16:03:59.436Z,17.20
2022-10-28T16:06:34.752Z,15.10
2022-10-28T16:09:09.136Z,12.90
2022-10-28T16:11:42.823Z,13.10
2022-10-28T16:14:41.293Z,33.10
2022-10-28T16:17:27.444Z,21.10
2022-10-28T16:20:00.632Z,15.20
2022-10-28T16:22:31.073Z,16.90
2022-10-28T16:24:58.742Z,12.90
2022-10-28T16:27:31.041Z,17.10
2022-10-28T16:29:58.926Z,16.00
2022-10-28T16:32:33.913Z,17.20
2022-10-28T16:35:08.791Z,14.20
2022-10-28T16:37:40.452Z,14.20
2022-10-28T16:40:30.987Z,19.60
2022-10-28T16:43:01.524Z,16.20
2022-10-28T16:45:29.271Z,14.20
2022-10-28T16:47:57.084Z,15.30
2022-10-28T16:50:25.178Z,16.50
2022-10-28T16:52:54.961Z,52.50
2022-10-28T16:55:22.750Z,23.20
2022-10-28T16:57:50.399Z,17.50
2022-10-28T17:00:18.961Z,21.60
2022-10-28T17:02:50.651Z,21.70
2022-10-28T17:05:22.368Z,37.00
2022-10-28T17:07:50.845Z,21.80
2022-10-28T17:10:18.556Z,20.30
2022-10-28T17:12:46.249Z,21.80
2022-10-28T17:15:14.000Z,23.10
2022-10-28T17:17:42.535Z,54.20
2022-10-28T17:20:10.832Z,43.00
2022-10-28T17:22:40.390Z,19.60
2022-10-28T17:25:09.265Z,22.90
2022-10-28T17:27:36.980Z,23.20
2022-10-28T17:30:06.128Z,24.20
2022-10-28T17:32:34.062Z,24.30
2022-10-28T17:35:01.741Z,20.50
2022-10-28T17:37:29.892Z,23.60
2022-10-28T17:39:57.536Z,20.80
2022-10-28T17:42:25.669Z,21.20
2022-10-28T17:44:53.400Z,21.70
2022-10-28T17:47:21.032Z,25.40
2022-10-28T17:49:48.728Z,23.90
2022-10-28T17:52:16.456Z,19.30
2022-10-28T17:54:44.256Z,23.40
2022-10-28T17:57:12.582Z,25.50
2022-10-28T17:59:40.312Z,20.90
2022-10-28T18:02:13.272Z,24.00
2022-10-28T18:04:42.177Z,21.10
2022-10-28T18:07:09.811Z,29.70
2022-10-28T18:09:37.552Z,30.10
2022-10-28T18:12:06.638Z,27.30
2022-10-28T18:14:34.313Z,29.20
2022-10-28T18:17:02.028Z,32.10
2022-10-28T18:19:29.860Z,25.10
2022-10-28T18:21:57.615Z,26.10
2022-10-28T18:24:26.061Z,22.40
2022-10-28T18:26:55.830Z,28.60
2022-10-28T18:29:24.080Z,27.40
2022-10-28T18:31:51.862Z,30.40
2022-10-28T18:34:21.115Z,29.80
2022-10-28T18:36:49.448Z,30.40
2022-10-28T18:39:17.179Z,32.00
2022-10-28T18:41:44.879Z,25.80
2022-10-28T18:44:14.374Z,22.90
2022-10-28T18:46:42.605Z,22.60
2022-10-28T18:49:10.355Z,21.20
2022-10-28T18:51:38.132Z,24.60
2022-10-28T18:54:06.004Z,21.20
2022-10-28T18:56:34.330Z,20.30
2022-10-28T18:59:04.491Z,40.40
2022-10-28T19:01:33.182Z,35.50
2022-10-28T19:04:04.264Z,29.10
2022-10-28T19:06:33.972Z,29.40
2022-10-28T19:09:04.597Z,19.70
2022-10-28T19:11:33.821Z,16.30
2022-10-28T19:14:05.176Z,17.10
2022-10-28T19:16:34.931Z,24.40
2022-10-28T19:19:05.169Z,20.20
2022-10-28T19:21:33.586Z,20.60
2022-10-28T19:24:02.769Z,15.80
2022-10-28T19:26:32.010Z,14.50
2022-10-28T19:28:59.801Z,17.00
2022-10-28T19:31:27.535Z,15.30
2022-10-28T19:33:55.579Z,15.40
2022-10-28T19:36:29.405Z,18.70
2022-10-28T19:38:58.240Z,15.30
2022-10-28T19:41:29.473Z,14.30
2022-10-28T19:44:00.709Z,16.30
2022-10-28T19:46:32.374Z,15.60
2022-10-28T19:49:04.426Z,16.80
2022-10-28T19:51:39.749Z,18.80
2022-10-28T19:54:12.273Z,73.90
2022-10-28T19:56:42.603Z,58.70
2022-10-28T19:59:10.516Z,22.10
2022-10-28T20:01:39.896Z,18.80
2022-10-28T20:04:09.801Z,19.40
2022-10-28T20:06:40.577Z,21.30
2022-10-28T20:09:09.140Z,15.00
2022-10-28T20:11:39.612Z,53.30
2022-10-28T20:14:11.755Z,18.20
2022-10-28T20:16:42.958Z,12.90
2022-10-28T20:19:12.331Z,15.80
2022-10-28T20:21:40.400Z,17.90
2022-10-28T20:24:08.708Z,14.90
2022-10-28T20:26:38.431Z,15.90
2022-10-28T20:29:09.951Z,15.20
2022-10-28T20:31:41.037Z,20.70
2022-10-28T20:34:08.799Z,16.30
2022-10-28T20:36:39.963Z,15.00
2022-10-28T20:39:14.320Z,14.00
2022-10-28T20:41:44.697Z,17.30
2022-10-28T20:44:13.007Z,16.60
2022-10-28T20:46:41.644Z,55.40
2022-10-28T20:49:09.861Z,77.40
2022-10-28T20:51:37.534Z,16.50
2022-10-28T20:54:06.539Z,16.30
2022-10-28T20:56:37.732Z,12.70
2022-10-28T20:59:06.374Z,17.00
2022-10-28T21:01:40.641Z,15.10
2022-10-28T21:04:10.858Z,18.90
2022-10-28T21:06:39.969Z,22.20
2022-10-28T21:09:08.893Z,24.70
2022-10-28T21:11:36.649Z,15.00
2022-10-28T21:14:04.352Z,16.20
2022-10-28T21:16:32.328Z,15.60
2022-10-28T21:19:00.168Z,16.80
2022-10-28T21:21:29.293Z,18.50
2022-10-28T21:23:59.631Z,20.50
2022-10-28T21:26:27.468Z,18.40
2022-10-28T21:28:56.302Z,18.30
2022-10-28T21:31:24.643Z,17.60
2022-10-28T21:33:53.229Z,30.00
2022-10-28T21:36:22.295Z,24.90
2022-10-28T21:38:55.328Z,14.90
2022-10-28T21:41:24.272Z,11.80
2022-10-28T21:43:53.857Z,13.90
2022-10-28T21:46:23.328Z,19.70
2022-10-28T21:48:52.384Z,24.10
2022-10-28T21:51:20.031Z,16.20
2022-10-28T21:53:47.837Z,18.80
2022-10-28T21:56:19.431Z,14.60
2022-10-28T21:58:50.293Z,16.00
2022-10-28T22:01:22.108Z,14.50
2022-10-28T22:03:52.185Z,11.90
2022-10-28T22:06:22.204Z,19.30
2022-10-28T22:08:53.581Z,18.90
2022-10-28T22:11:23.897Z,15.30
2022-10-28T22:14:03.727Z,30.40
2022-10-28T22:16:34.367Z,18.30
2022-10-28T22:19:05.983Z,21.90
2022-10-28T22:21:40.097Z,41.00
2022-10-28T22:24:08.626Z,31.70
2022-10-28T22:26:36.294Z,48.50
2022-10-28T22:29:04.624Z,17.30
2022-10-28T22:31:33.364Z,16.40
2022-10-28T22:34:01.416Z,16.90
2022-10-28T22:36:29.904Z,12.00
2022-10-28T22:38:58.197Z,12.50
2022-10-28T22:41:30.724Z,18.20
2022-10-28T22:44:01.592Z,14.20
2022-10-28T22:49:01.136Z,14.00
2022-10-28T22:51:28.842Z,20.80
2022-10-28T22:53:57.267Z,16.70
2022-10-28T22:56:26.863Z,13.80
2022-10-28T22:58:57.628Z,14.50
2022-10-28T23:01:28.334Z,219.40
2022-10-28T23:03:56.284Z,22.80
2022-10-28T23:06:27.177Z,13.70
2022-10-28T23:08:54.952Z,11.90
2022-10-28T23:11:23.063Z,15.40
2022-10-28T23:13:53.210Z,10.70
2022-10-28T23:16:22.808Z,21.50
2022-10-28T23:18:52.901Z,17.10
2022-10-28T23:21:24.138Z,13.20
2022-10-28T23:23:57.958Z,16.90
2022-10-28T23:26:28.325Z,15.80
2022-10-28T23:29:00.669Z,13.60
2022-10-28T23:31:28.585Z,19.60
2022-10-28T23:33:56.449Z,22.30
2022-10-28T23:36:24.403Z,13.30
2022-10-28T23:38:52.517Z,17.90
2022-10-28T23:41:20.990Z,12.80
2022-10-28T23:43:49.457Z,19.40
2022-10-28T23:46:18.345Z,18.80
2022-10-28T23:48:46.058Z,15.00
2022-10-28T23:51:14.126Z,16.00
2022-10-28T23:53:41.865Z,21.60
2022-10-28T23:56:09.515Z,15.40
2022-10-28T23:58:37.209Z,15.80
